Time;durP1;ratioP1;P1;durP2;ratioP2;P2;SDS_P1;SDS_P2;PMS_P1;PMS_P2;Temp;Humidity;BMP_temperature;BMP_pressure;BME280_temperature;BME280_humidity;BME280_pressure;Samples;Min_cycle;Max_cycle;Signal;HPM_P1;HPM_P2
2022/05/29 00:01:58;;;;;;;6.85;3.17;;;;;;;;;;4417933;79;28552;-78
2022/05/29 00:07:59;;;;;;;6.55;3.00;;;;;;;;;;4436543;79;28521;-78
2022/05/29 00:14:00;;;;;;;7.87;3.40;;;;;;;;;;4417799;79;28513;-78
2022/05/29 00:20:01;;;;;;;7.47;3.00;;;;;;;;;;4434906;79;28485;-78
2022/05/29 00:26:02;;;;;;;9.85;3.15;;;;;;;;;;4434019;79;28528;-78
2022/05/29 00:32:04;;;;;;;7.92;3.75;;;;;;;;;;4436196;79;28550;-78
2022/05/29 00:38:05;;;;;;;7.28;3.80;;;;;;;;;;4430222;79;28451;-79
2022/05/29 00:44:17;;;;;;;8.03;3.77;;;;;;;;;;4429454;80;28505;-78
2022/05/29 00:50:18;;;;;;;6.42;3.05;;;;;;;;;;4408122;79;28507;-78
2022/05/29 00:56:19;;;;;;;9.65;3.15;;;;;;;;;;4423667;80;28509;-77
2022/05/29 01:02:20;;;;;;;7.45;2.85;;;;;;;;;;4391389;79;28499;-77
2022/05/29 01:08:23;;;;;;;10.55;3.52;;;;;;;;;;4438604;78;28527;-77
2022/05/29 01:14:44;;;;;;;7.12;3.80;;;;;;;;;;4421800;80;28463;-77
2022/05/29 01:20:50;;;;;;;10.35;4.22;;;;;;;;;;4424762;79;28480;-79
2022/05/29 01:26:58;;;;;;;9.23;3.60;;;;;;;;;;4425702;79;28488;-78
2022/05/29 01:33:13;;;;;;;8.18;3.92;;;;;;;;;;4386332;80;28477;-78
2022/05/29 01:39:21;;;;;;;9.28;3.80;;;;;;;;;;4414452;79;28509;-78
2022/05/29 01:45:27;;;;;;;9.05;3.83;;;;;;;;;;4372592;80;28513;-78
2022/05/29 01:51:33;;;;;;;12.63;4.05;;;;;;;;;;4474219;78;28874;-77
2022/05/29 01:57:38;;;;;;;9.75;4.00;;;;;;;;;;4498570;77;28491;-77
2022/05/29 02:03:41;;;;;;;10.07;4.17;;;;;;;;;;4494822;77;28518;-78
2022/05/29 02:09:45;;;;;;;11.88;4.03;;;;;;;;;;4482688;77;28529;-77
2022/05/29 02:15:57;;;;;;;8.03;3.33;;;;;;;;;;4457203;78;28517;-77
2022/05/29 02:21:59;;;;;;;7.00;3.62;;;;;;;;;;4464088;79;28567;-77
2022/05/29 02:28:02;;;;;;;7.42;3.22;;;;;;;;;;4471413;78;28540;-79
2022/05/29 02:34:05;;;;;;;9.55;3.67;;;;;;;;;;4508286;78;28559;-77
2022/05/29 02:40:08;;;;;;;7.58;4.03;;;;;;;;;;4507145;78;28578;-77
2022/05/29 02:46:10;;;;;;;8.60;3.80;;;;;;;;;;4477660;79;28475;-78
2022/05/29 02:52:13;;;;;;;7.87;3.87;;;;;;;;;;4472535;78;28511;-79
2022/05/29 02:58:18;;;;;;;8.68;3.60;;;;;;;;;;4487459;79;28452;-78
2022/05/29 03:04:38;;;;;;;6.25;3.22;;;;;;;;;;4502598;78;28559;-78
2022/05/29 03:10:40;;;;;;;6.17;3.27;;;;;;;;;;4462067;78;28519;-79
2022/05/29 03:16:59;;;;;;;7.80;3.42;;;;;;;;;;4478508;78;28607;-79
2022/05/29 03:23:05;;;;;;;7.12;3.47;;;;;;;;;;4444351;78;28588;-80
2022/05/29 03:29:08;;;;;;;6.87;3.63;;;;;;;;;;4485892;78;28523;-80
2022/05/29 03:35:22;;;;;;;6.47;3.05;;;;;;;;;;4487127;78;28480;-80
2022/05/29 03:41:25;;;;;;;7.35;2.90;;;;;;;;;;4482410;78;28472;-78
2022/05/29 03:47:27;;;;;;;6.53;2.47;;;;;;;;;;4483039;78;28557;-80
2022/05/29 03:53:28;;;;;;;5.30;2.20;;;;;;;;;;4465505;78;28490;-77
2022/05/29 03:59:29;;;;;;;6.65;2.83;;;;;;;;;;4473130;78;28547;-80
2022/05/29 04:05:30;;;;;;;7.33;3.42;;;;;;;;;;4466769;78;28563;-79
2022/05/29 04:17:50;;;;;;;8.85;3.90;;;;;;;;;;4493701;77;28545;-79
2022/05/29 04:23:51;;;;;;;7.62;3.72;;;;;;;;;;4504621;77;28535;-78
2022/05/29 04:29:52;;;;;;;10.68;3.80;;;;;;;;;;4492798;77;28514;-79
2022/05/29 04:35:54;;;;;;;6.28;3.10;;;;;;;;;;4504554;77;28527;-78
2022/05/29 04:41:55;;;;;;;8.38;2.52;;;;;;;;;;4468990;77;28504;-78
2022/05/29 04:47:55;;;;;;;6.62;2.37;;;;;;;;;;4481234;77;28514;-77
2022/05/29 04:53:56;;;;;;;4.80;2.08;;;;;;;;;;4485705;77;28470;-78
2022/05/29 04:59:57;;;;;;;5.58;2.30;;;;;;;;;;4477185;77;28589;-76
2022/05/29 05:05:59;;;;;;;7.55;2.55;;;;;;;;;;4484990;77;28538;-78
2022/05/29 05:12:00;;;;;;;6.05;2.27;;;;;;;;;;4513010;77;28457;-78
2022/05/29 05:18:01;;;;;;;5.10;2.30;;;;;;;;;;4511325;77;28525;-78
2022/05/29 05:24:03;;;;;;;3.90;2.30;;;;;;;;;;4507754;77;28521;-77
2022/05/29 05:30:04;;;;;;;3.72;1.90;;;;;;;;;;4508671;77;28505;-77
2022/05/29 05:36:06;;;;;;;7.33;2.20;;;;;;;;;;4509740;77;28431;-79
2022/05/29 05:42:07;;;;;;;7.58;2.20;;;;;;;;;;4509227;78;28479;-79
2022/05/29 05:48:08;;;;;;;8.40;2.65;;;;;;;;;;4509407;77;28513;-78
2022/05/29 05:54:09;;;;;;;6.28;2.25;;;;;;;;;;4499676;77;28560;-77
2022/05/29 06:00:14;;;;;;;4.80;2.00;;;;;;;;;;4516060;77;28517;-76
2022/05/29 06:06:15;;;;;;;6.22;2.27;;;;;;;;;;4512679;77;28483;-83
2022/05/29 06:12:19;;;;;;;6.08;1.85;;;;;;;;;;4483194;78;28713;-80
2022/05/29 06:18:19;;;;;;;5.70;1.80;;;;;;;;;;4467664;78;28543;-81
2022/05/29 06:24:20;;;;;;;5.95;1.80;;;;;;;;;;4471130;78;28523;-78
2022/05/29 06:30:21;;;;;;;7.10;1.90;;;;;;;;;;4475944;78;28524;-76
2022/05/29 06:36:25;;;;;;;5.78;1.95;;;;;;;;;;4460419;78;28480;-77
2022/05/29 06:42:29;;;;;;;6.62;1.70;;;;;;;;;;4432379;78;28566;-80
2022/05/29 06:48:32;;;;;;;6.47;1.95;;;;;;;;;;4442775;78;28520;-81
2022/05/29 06:54:33;;;;;;;4.05;1.57;;;;;;;;;;4435361;78;28573;-80
2022/05/29 07:07:00;;;;;;;4.65;1.90;;;;;;;;;;4458675;79;28571;-79
2022/05/29 07:13:01;;;;;;;7.40;2.40;;;;;;;;;;4445951;77;28546;-76
2022/05/29 07:19:04;;;;;;;6.40;1.95;;;;;;;;;;4410263;78;28504;-78
2022/05/29 07:25:06;;;;;;;4.28;1.90;;;;;;;;;;4481309;78;28480;-80
2022/05/29 07:31:06;;;;;;;9.88;2.20;;;;;;;;;;4469778;78;28527;-80
2022/05/29 07:37:09;;;;;;;4.58;1.40;;;;;;;;;;4434440;78;28612;-80
2022/05/29 07:43:19;;;;;;;5.80;1.35;;;;;;;;;;4454090;78;28585;-80
2022/05/29 07:49:36;;;;;;;6.28;1.40;;;;;;;;;;4478246;78;28535;-83
2022/05/29 07:55:39;;;;;;;5.60;1.50;;;;;;;;;;4470901;78;28565;-81
2022/05/29 08:01:40;;;;;;;8.25;1.55;;;;;;;;;;4466969;79;35146;-81
2022/05/29 08:07:43;;;;;;;3.12;1.30;;;;;;;;;;4460601;78;28510;-84
2022/05/29 08:13:47;;;;;;;5.45;1.55;;;;;;;;;;4515144;77;28535;-83
2022/05/29 08:19:48;;;;;;;3.65;1.45;;;;;;;;;;4496355;77;28540;-77
2022/05/29 08:32:08;;;;;;;3.98;1.17;;;;;;;;;;4484592;77;28523;-82
2022/05/29 08:38:10;;;;;;;4.60;1.35;;;;;;;;;;4526535;77;28519;-82
2022/05/29 08:44:16;;;;;;;3.40;1.07;;;;;;;;;;4528863;77;28582;-82
2022/05/29 08:50:18;;;;;;;2.80;1.10;;;;;;;;;;4536859;77;28617;-81
2022/05/29 08:56:27;;;;;;;4.97;1.60;;;;;;;;;;4502827;78;28560;-82
2022/05/29 09:02:43;;;;;;;4.30;1.30;;;;;;;;;;4521245;77;28520;-82
2022/05/29 09:08:45;;;;;;;3.80;1.37;;;;;;;;;;4506675;77;28521;-82
2022/05/29 09:14:51;;;;;;;3.83;1.35;;;;;;;;;;4482819;77;28479;-82
2022/05/29 09:21:00;;;;;;;3.63;1.67;;;;;;;;;;4491020;77;28528;-81
2022/05/29 09:27:01;;;;;;;3.33;1.45;;;;;;;;;;4508554;77;28546;-82
2022/05/29 09:33:03;;;;;;;1.85;1.17;;;;;;;;;;4494062;77;28481;-82
2022/05/29 09:39:06;;;;;;;3.30;1.25;;;;;;;;;;4487700;77;28574;-82
2022/05/29 09:45:24;;;;;;;3.87;1.30;;;;;;;;;;4506513;78;28474;-82
2022/05/29 09:51:31;;;;;;;3.65;0.95;;;;;;;;;;4517454;77;28510;-82
2022/05/29 09:57:38;;;;;;;3.35;1.10;;;;;;;;;;4481952;77;28557;-81
2022/05/29 10:03:44;;;;;;;3.67;1.10;;;;;;;;;;4454817;77;28579;-82
2022/05/29 10:09:57;;;;;;;3.87;1.00;;;;;;;;;;4441730;77;28455;-80
2022/05/29 10:15:58;;;;;;;2.45;1.00;;;;;;;;;;4451768;77;28490;-79
2022/05/29 10:22:00;;;;;;;2.50;0.78;;;;;;;;;;4504371;77;28522;-80
2022/05/29 10:28:02;;;;;;;2.22;0.57;;;;;;;;;;4526400;77;28526;-80
2022/05/29 10:34:12;;;;;;;2.62;0.70;;;;;;;;;;4523704;77;28532;-81
2022/05/29 10:40:27;;;;;;;1.87;0.57;;;;;;;;;;4517286;77;28491;-82
2022/05/29 10:46:39;;;;;;;0.55;0.40;;;;;;;;;;4535961;77;28475;-80
2022/05/29 10:52:45;;;;;;;2.45;0.60;;;;;;;;;;4517733;77;28549;-82
2022/05/29 10:58:51;;;;;;;1.62;0.33;;;;;;;;;;4524378;77;28471;-83
2022/05/29 11:04:56;;;;;;;1.37;0.45;;;;;;;;;;4518302;77;28558;-82
2022/05/29 11:11:02;;;;;;;1.57;0.50;;;;;;;;;;4502646;77;28526;-79
2022/05/29 11:17:05;;;;;;;2.83;0.53;;;;;;;;;;4493671;77;28538;-84
2022/05/29 11:23:25;;;;;;;2.05;0.80;;;;;;;;;;4495723;77;28550;-82
2022/05/29 11:29:44;;;;;;;2.87;0.88;;;;;;;;;;4486729;78;28544;-78
2022/05/29 11:36:04;;;;;;;3.30;0.80;;;;;;;;;;4515276;79;28498;-78
2022/05/29 11:42:10;;;;;;;4.20;0.93;;;;;;;;;;4506372;77;28519;-81
2022/05/29 11:54:33;;;;;;;2.12;0.80;;;;;;;;;;4522560;77;28530;-82
2022/05/29 12:00:39;;;;;;;1.40;0.70;;;;;;;;;;4477313;78;28574;-87
2022/05/29 12:06:43;;;;;;;2.35;0.70;;;;;;;;;;4504948;78;28546;-82
2022/05/29 12:12:46;;;;;;;1.52;0.70;;;;;;;;;;4389439;78;28506;-82
2022/05/29 12:18:48;;;;;;;3.65;0.95;;;;;;;;;;4352912;79;28537;-81
2022/05/29 12:24:50;;;;;;;2.58;0.68;;;;;;;;;;4424195;79;28508;-82
2022/05/29 12:30:52;;;;;;;3.67;0.80;;;;;;;;;;4402528;79;28531;-83
2022/05/29 12:37:05;;;;;;;1.12;0.70;;;;;;;;;;4421481;78;28498;-83
2022/05/29 12:43:08;;;;;;;2.10;0.62;;;;;;;;;;4383299;79;28571;-83
2022/05/29 12:49:13;;;;;;;1.62;0.75;;;;;;;;;;4306937;80;28524;-81
2022/05/29 12:55:21;;;;;;;2.75;0.90;;;;;;;;;;4325440;80;28530;-82
2022/05/29 13:01:34;;;;;;;2.22;0.88;;;;;;;;;;4311554;80;28544;-81
2022/05/29 13:07:55;;;;;;;2.20;0.80;;;;;;;;;;4320512;79;28560;-81
2022/05/29 13:13:56;;;;;;;2.83;0.72;;;;;;;;;;4364299;80;28549;-80
2022/05/29 13:19:59;;;;;;;1.62;0.68;;;;;;;;;;4352426;80;28542;-77
2022/05/29 13:26:02;;;;;;;3.37;0.85;;;;;;;;;;4315480;80;28523;-78
2022/05/29 13:32:14;;;;;;;3.52;1.00;;;;;;;;;;4350302;80;28514;-76
2022/05/29 13:38:34;;;;;;;1.98;1.00;;;;;;;;;;4433707;78;28521;-77
2022/05/29 13:44:36;;;;;;;3.00;1.00;;;;;;;;;;4359650;80;28562;-78
2022/05/29 13:50:42;;;;;;;3.30;1.30;;;;;;;;;;4340983;80;28587;-80
2022/05/29 13:56:54;;;;;;;2.02;1.00;;;;;;;;;;4359027;80;28533;-79
2022/05/29 14:09:23;;;;;;;2.52;1.27;;;;;;;;;;4366676;81;28480;-78
2022/05/29 14:15:38;;;;;;;4.10;1.50;;;;;;;;;;4380959;80;28594;-78
2022/05/29 14:21:41;;;;;;;3.33;1.20;;;;;;;;;;4423040;79;28508;-78
2022/05/29 14:28:05;;;;;;;3.20;1.20;;;;;;;;;;4422394;79;28539;-77
2022/05/29 14:34:26;;;;;;;2.58;1.10;;;;;;;;;;4410716;79;28504;-77
2022/05/29 14:40:35;;;;;;;2.05;0.90;;;;;;;;;;4388097;79;28510;-77
2022/05/29 14:53:04;;;;;;;3.17;1.22;;;;;;;;;;4437948;79;28561;-73
2022/05/29 14:59:16;;;;;;;1.60;1.00;;;;;;;;;;4422586;79;28557;-75
2022/05/29 15:05:18;;;;;;;3.65;1.20;;;;;;;;;;4448873;79;28508;-76
2022/05/29 15:11:19;;;;;;;2.22;0.90;;;;;;;;;;4403425;79;28600;-78
2022/05/29 15:17:20;;;;;;;2.10;1.10;;;;;;;;;;4392663;79;28523;-78
2022/05/29 15:29:50;;;;;;;2.10;0.80;;;;;;;;;;4391792;79;28582;-76
2022/05/29 15:35:52;;;;;;;2.55;1.02;;;;;;;;;;4400906;79;28556;-78
2022/05/29 15:41:58;;;;;;;2.27;0.85;;;;;;;;;;4428537;79;28551;-76
2022/05/29 15:48:06;;;;;;;3.80;1.00;;;;;;;;;;4377369;79;28528;-78
2022/05/29 15:54:25;;;;;;;3.00;1.10;;;;;;;;;;4390891;79;28641;-76
2022/05/29 16:00:27;;;;;;;2.77;0.90;;;;;;;;;;4400415;79;28479;-75
2022/05/29 16:06:38;;;;;;;2.77;0.90;;;;;;;;;;4415020;79;28541;-76
2022/05/29 16:12:59;;;;;;;2.90;0.95;;;;;;;;;;4375260;79;28524;-76
2022/05/29 16:19:08;;;;;;;4.15;1.20;;;;;;;;;;4432945;78;28539;-77
2022/05/29 16:25:09;;;;;;;3.02;0.98;;;;;;;;;;4349509;80;28517;-79
2022/05/29 16:31:15;;;;;;;3.30;1.80;;;;;;;;;;4307878;80;28527;-78
2022/05/29 16:50:11;;;;;;;2.90;0.98;;;;;;;;;;4374561;79;28509;-75
2022/05/29 16:56:13;;;;;;;4.28;1.25;;;;;;;;;;4381997;79;28603;-77
2022/05/29 17:02:22;;;;;;;4.70;1.30;;;;;;;;;;4338319;80;28555;-78
2022/05/29 17:08:31;;;;;;;3.37;1.40;;;;;;;;;;4352282;80;28562;-77
2022/05/29 17:14:32;;;;;;;2.62;1.07;;;;;;;;;;4428303;78;28537;-77
2022/05/29 17:20:52;;;;;;;4.05;1.27;;;;;;;;;;4435504;78;28504;-75
2022/05/29 17:27:04;;;;;;;4.15;1.45;;;;;;;;;;4413361;78;28544;-75
2022/05/29 17:33:10;;;;;;;3.40;1.10;;;;;;;;;;4444188;78;28537;-76
2022/05/29 17:39:28;;;;;;;5.60;1.23;;;;;;;;;;4335397;80;28561;-77
2022/05/29 17:45:30;;;;;;;2.95;1.07;;;;;;;;;;4396192;79;28462;-77
2022/05/29 17:51:36;;;;;;;2.60;1.12;;;;;;;;;;4393636;79;28505;-80
2022/05/29 17:57:38;;;;;;;4.70;1.67;;;;;;;;;;4408021;79;28567;-77
2022/05/29 18:03:39;;;;;;;3.55;1.27;;;;;;;;;;4388757;79;28560;-77
2022/05/29 18:09:41;;;;;;;3.20;1.27;;;;;;;;;;4420591;79;28555;-77
2022/05/29 18:15:42;;;;;;;4.05;1.40;;;;;;;;;;4430528;78;28521;-77
2022/05/29 18:21:43;;;;;;;3.95;1.57;;;;;;;;;;4335869;80;28566;-78
2022/05/29 18:27:44;;;;;;;6.20;1.70;;;;;;;;;;4450609;78;28564;-78
2022/05/29 18:33:46;;;;;;;4.00;1.60;;;;;;;;;;4451247;78;28552;-79
2022/05/29 18:39:46;;;;;;;4.80;1.62;;;;;;;;;;4442308;78;28492;-80
2022/05/29 18:45:47;;;;;;;3.98;1.50;;;;;;;;;;4407574;80;28496;-80
2022/05/29 18:51:48;;;;;;;5.08;1.52;;;;;;;;;;4458320;79;28537;-80
2022/05/29 18:57:49;;;;;;;5.15;1.65;;;;;;;;;;4434862;78;28487;-80
2022/05/29 19:03:50;;;;;;;2.67;1.30;;;;;;;;;;4455028;79;28490;-86
2022/05/29 19:09:55;;;;;;;3.15;1.98;;;;;;;;;;4404908;78;28491;-87
2022/05/29 19:15:56;;;;;;;5.45;2.00;;;;;;;;;;4498748;77;43450;-81
2022/05/29 19:21:58;;;;;;;4.78;1.70;;;;;;;;;;4508856;77;28523;-84
2022/05/29 19:27:59;;;;;;;3.58;1.62;;;;;;;;;;4527828;78;28512;-83
2022/05/29 19:34:00;;;;;;;3.05;1.65;;;;;;;;;;4506565;77;28579;-82
2022/05/29 19:40:01;;;;;;;5.20;1.87;;;;;;;;;;4525790;77;28514;-80
2022/05/29 19:46:02;;;;;;;4.12;2.10;;;;;;;;;;4469674;77;28489;-82
2022/05/29 19:52:03;;;;;;;6.08;2.20;;;;;;;;;;4526421;77;28544;-82
2022/05/29 19:58:04;;;;;;;7.15;2.22;;;;;;;;;;4514184;77;28549;-81
2022/05/29 20:04:05;;;;;;;5.28;1.98;;;;;;;;;;4522701;77;28466;-84
2022/05/29 20:10:08;;;;;;;4.35;2.42;;;;;;;;;;4540047;77;28494;-81
2022/05/29 20:16:14;;;;;;;3.50;2.10;;;;;;;;;;4506447;77;28524;-86
2022/05/29 20:22:15;;;;;;;4.30;2.00;;;;;;;;;;4501852;77;28905;-85
2022/05/29 20:28:16;;;;;;;6.17;2.50;;;;;;;;;;4508833;77;28459;-86
2022/05/29 20:34:21;;;;;;;6.90;2.30;;;;;;;;;;4547025;77;28440;-85
2022/05/29 20:40:21;;;;;;;4.05;1.98;;;;;;;;;;4517166;75;28540;-85
2022/05/29 20:52:46;;;;;;;5.05;2.20;;;;;;;;;;4497627;77;28476;-85
2022/05/29 20:58:46;;;;;;;4.80;2.00;;;;;;;;;;4504573;77;28469;-85
2022/05/29 21:04:47;;;;;;;4.03;2.12;;;;;;;;;;4528158;77;28544;-84
2022/05/29 21:10:48;;;;;;;6.95;2.17;;;;;;;;;;4528159;77;28478;-85
2022/05/29 21:16:49;;;;;;;4.83;2.50;;;;;;;;;;4486019;77;28549;-85
2022/05/29 21:22:50;;;;;;;4.92;2.10;;;;;;;;;;4497909;77;28499;-85
2022/05/29 21:28:51;;;;;;;5.65;2.00;;;;;;;;;;4480484;77;28530;-86
2022/05/29 21:34:53;;;;;;;5.90;2.15;;;;;;;;;;4503181;78;28556;-87
2022/05/29 21:40:56;;;;;;;3.50;1.77;;;;;;;;;;4499449;77;28531;-87
2022/05/29 21:46:56;;;;;;;8.28;3.40;;;;;;;;;;4475720;77;28537;-87
2022/05/29 21:52:58;;;;;;;5.70;2.00;;;;;;;;;;4489650;77;28537;-87
2022/05/29 21:58:59;;;;;;;5.83;1.92;;;;;;;;;;4475461;78;28516;-86
2022/05/29 22:04:59;;;;;;;4.40;1.95;;;;;;;;;;4544344;77;28529;-86
2022/05/29 22:11:01;;;;;;;4.53;2.12;;;;;;;;;;4522633;77;28551;-84
2022/05/29 22:17:02;;;;;;;5.20;2.40;;;;;;;;;;4513400;77;28584;-84
2022/05/29 22:23:03;;;;;;;4.92;2.33;;;;;;;;;;4518952;77;28491;-85
2022/05/29 22:29:04;;;;;;;12.37;2.60;;;;;;;;;;4503423;77;28451;-84
2022/05/29 22:35:10;;;;;;;7.83;3.33;;;;;;;;;;4515064;77;28560;-84
2022/05/29 22:41:12;;;;;;;6.92;3.25;;;;;;;;;;4511782;77;28522;-84
2022/05/29 22:47:31;;;;;;;6.72;3.52;;;;;;;;;;4520108;77;28501;-83
2022/05/29 22:53:37;;;;;;;6.50;3.87;;;;;;;;;;4461731;77;28501;-83
2022/05/29 22:59:38;;;;;;;8.47;4.00;;;;;;;;;;4541920;77;28542;-84
2022/05/29 23:05:39;;;;;;;5.45;3.22;;;;;;;;;;4521991;77;35941;-85
2022/05/29 23:11:42;;;;;;;7.12;3.80;;;;;;;;;;4520828;77;28506;-85
2022/05/29 23:17:43;;;;;;;5.62;3.55;;;;;;;;;;4524196;77;28505;-86
2022/05/29 23:23:45;;;;;;;6.28;3.70;;;;;;;;;;4525947;77;28602;-85
2022/05/29 23:36:06;;;;;;;7.78;4.05;;;;;;;;;;4525570;77;28493;-87
2022/05/29 23:42:22;;;;;;;9.45;4.37;;;;;;;;;;4511659;77;28550;-86
2022/05/29 23:48:27;;;;;;;7.65;4.30;;;;;;;;;;4530633;77;28533;-88
2022/05/29 23:54:28;;;;;;;6.97;4.53;;;;;;;;;;4518746;77;28475;-88
